Time;durP1;ratioP1;P1;durP2;ratioP2;P2;SDS_P1;SDS_P2;PMS_P1;PMS_P2;Temp;Humidity;BMP_temperature;BMP_pressure;BME280_temperature;BME280_humidity;BME280_pressure;Samples;Min_cycle;Max_cycle;Signal;HPM_P1;HPM_P2
2023/04/24 00:01:00;;;;;;;8.30;6.80;;;;;;;15.79;40.55;99415.47;5011908;28;20250;-68
2023/04/24 00:03:29;;;;;;;10.55;6.55;;;;;;;15.78;41.07;99411.19;5007230;28;20215;-66
2023/04/24 00:05:58;;;;;;;7.10;6.23;;;;;;;15.80;40.65;99417.16;5011184;28;20207;-68
2023/04/24 00:08:27;;;;;;;9.27;6.72;;;;;;;15.80;41.17;99414.56;5013535;28;20207;-70
2023/04/24 00:10:55;;;;;;;8.50;6.37;;;;;;;15.75;41.05;99408.72;5013973;28;20203;-68
2023/04/24 00:13:22;;;;;;;6.60;6.00;;;;;;;15.75;41.35;99410.47;5011737;28;20647;-68
2023/04/24 00:15:52;;;;;;;10.67;6.70;;;;;;;15.74;41.54;99412.22;5011724;28;20213;-67
2023/04/24 00:18:20;;;;;;;7.40;6.15;;;;;;;15.76;40.92;99410.41;5007142;28;20219;-67
2023/04/24 00:20:51;;;;;;;7.87;6.07;;;;;;;15.73;41.36;99400.16;5013061;28;20627;-67
2023/04/24 00:23:19;;;;;;;8.55;6.80;;;;;;;15.76;41.64;99399.16;5010443;28;20522;-68
2023/04/24 00:25:49;;;;;;;11.43;6.72;;;;;;;15.78;41.49;99398.19;5011729;28;20571;-67
2023/04/24 00:28:17;;;;;;;7.80;6.18;;;;;;;15.76;41.49;99393.97;5008177;28;20210;-67
2023/04/24 00:30:45;;;;;;;11.07;7.25;;;;;;;15.66;41.71;99394.38;5012556;28;20258;-67
2023/04/24 00:33:14;;;;;;;7.95;7.03;;;;;;;15.64;41.73;99390.94;5012282;28;20199;-67
2023/04/24 00:35:42;;;;;;;10.85;6.53;;;;;;;15.62;41.81;99391.94;5010069;28;21310;-68
2023/04/24 00:38:10;;;;;;;9.90;7.30;;;;;;;15.62;41.83;99397.13;5013579;28;20631;-70
2023/04/24 00:40:39;;;;;;;8.55;6.60;;;;;;;15.63;41.86;99397.06;5010185;28;20705;-67
2023/04/24 00:43:07;;;;;;;7.57;6.53;;;;;;;15.58;42.46;99393.81;5009805;28;20259;-66
2023/04/24 00:45:37;;;;;;;9.55;6.47;;;;;;;15.58;42.31;99403.38;5012305;28;20211;-67
2023/04/24 00:48:05;;;;;;;10.13;6.50;;;;;;;15.56;42.62;99397.38;5012772;28;20697;-68
2023/04/24 00:50:36;;;;;;;10.65;6.40;;;;;;;15.57;42.27;99391.28;5009803;28;20283;-68
2023/04/24 00:53:05;;;;;;;7.72;6.38;;;;;;;15.56;42.66;99397.38;5010044;28;20199;-69
2023/04/24 00:55:33;;;;;;;10.20;6.57;;;;;;;15.50;42.19;99403.69;5009655;28;20258;-68
2023/04/24 00:58:01;;;;;;;8.93;7.17;;;;;;;15.39;42.21;99396.38;5009817;28;20285;-69
2023/04/24 01:00:29;;;;;;;7.93;6.63;;;;;;;15.32;42.80;99394.94;5012244;28;20235;-68
2023/04/24 01:03:01;;;;;;;9.68;6.97;;;;;;;15.26;42.51;99392.56;5011365;28;20200;-70
2023/04/24 01:05:30;;;;;;;8.57;6.57;;;;;;;15.24;42.57;99402.16;5009396;28;20215;-68
2023/04/24 01:08:00;;;;;;;7.80;6.93;;;;;;;15.25;43.06;99393.50;5011731;28;20207;-71
2023/04/24 01:10:32;;;;;;;9.48;6.30;;;;;;;15.30;42.98;99398.47;5008625;28;20619;-69
2023/04/24 01:13:00;;;;;;;9.17;6.50;;;;;;;15.29;42.37;99397.66;5007312;28;20317;-74
2023/04/24 01:15:28;;;;;;;9.63;6.90;;;;;;;15.30;42.37;99404.50;5010586;28;20208;-69
2023/04/24 01:17:55;;;;;;;12.33;6.87;;;;;;;15.29;42.23;99400.25;5012261;28;20310;-70
2023/04/24 01:20:25;;;;;;;8.63;7.20;;;;;;;15.29;42.44;99400.25;5011638;28;20211;-68
2023/04/24 01:22:56;;;;;;;9.67;6.27;;;;;;;15.31;42.50;99393.22;5009620;28;20340;-70
2023/04/24 01:25:26;;;;;;;8.93;6.87;;;;;;;15.31;42.49;99393.22;5009845;28;20207;-71
2023/04/24 01:27:55;;;;;;;9.27;6.53;;;;;;;15.29;42.31;99389.84;5002398;28;20458;-67
2023/04/24 01:30:24;;;;;;;6.67;5.83;;;;;;;15.26;42.15;99386.53;5004914;28;20575;-67
2023/04/24 01:32:52;;;;;;;6.53;5.87;;;;;;;15.28;42.70;99390.78;5001760;28;20230;-66
2023/04/24 01:35:20;;;;;;;8.73;7.07;;;;;;;15.27;42.07;99386.47;5008865;28;20207;-69
2023/04/24 01:37:48;;;;;;;10.30;6.57;;;;;;;15.28;42.41;99385.59;5010421;28;20218;-67
2023/04/24 01:40:18;;;;;;;8.93;6.50;;;;;;;15.29;42.33;99379.47;5012212;28;20213;-71
2023/04/24 01:42:46;;;;;;;7.50;6.33;;;;;;;15.28;42.41;99380.38;5010872;28;20617;-69
2023/04/24 01:45:14;;;;;;;8.90;6.50;;;;;;;15.23;41.92;99359.78;5009261;28;20207;-70
2023/04/24 01:47:43;;;;;;;7.93;6.60;;;;;;;15.30;42.24;99375.97;5004695;28;20213;-67
2023/04/24 01:50:11;;;;;;;8.90;7.03;;;;;;;15.29;42.05;99366.50;5007794;28;20215;-68
2023/04/24 01:52:39;;;;;;;7.15;6.45;;;;;;;15.28;41.75;99367.41;5011802;28;20225;-69
2023/04/24 01:55:08;;;;;;;8.40;6.65;;;;;;;15.29;41.80;99363.06;5011415;28;20659;-67
2023/04/24 01:57:38;;;;;;;8.85;6.80;;;;;;;15.28;41.98;99362.22;5008444;28;20203;-67
2023/04/24 02:00:07;;;;;;;9.07;6.97;;;;;;;15.27;42.00;99365.69;5004856;28;20199;-70
2023/04/24 02:02:35;;;;;;;7.10;6.10;;;;;;;15.24;41.95;99360.63;5011446;28;20195;-68
2023/04/24 02:05:06;;;;;;;11.10;6.83;;;;;;;15.20;41.82;99353.88;5008629;28;20199;-71
2023/04/24 02:07:34;;;;;;;13.27;7.03;;;;;;;15.20;41.79;99348.69;5010020;28;20199;-67
2023/04/24 02:10:03;;;;;;;9.80;6.90;;;;;;;15.16;41.85;99350.56;5009841;28;20241;-69
2023/04/24 02:12:31;;;;;;;9.33;7.20;;;;;;;15.12;42.51;99348.19;5010154;28;20226;-68
2023/04/24 02:15:01;;;;;;;7.77;6.57;;;;;;;15.08;42.19;99350.06;5010771;28;20577;-70
2023/04/24 02:17:30;;;;;;;8.50;6.43;;;;;;;15.05;42.42;99342.38;5010614;28;20210;-68
2023/04/24 02:19:59;;;;;;;10.90;6.60;;;;;;;15.07;42.09;99344.94;5009846;28;20254;-68
2023/04/24 02:22:27;;;;;;;8.40;7.30;;;;;;;15.02;42.99;99339.06;5008095;28;20289;-69
2023/04/24 02:24:55;;;;;;;8.47;7.20;;;;;;;15.03;42.94;99348.56;5008743;28;20702;-66
2023/04/24 02:27:23;;;;;;;9.43;6.67;;;;;;;15.00;43.70;99351.28;5010699;28;20229;-70
2023/04/24 02:29:51;;;;;;;9.60;7.10;;;;;;;14.96;44.73;99356.59;5004020;28;20678;-71
2023/04/24 02:32:20;;;;;;;9.23;7.20;;;;;;;14.86;44.47;99350.06;5008227;28;20647;-70
2023/04/24 02:34:48;;;;;;;7.77;6.87;;;;;;;14.79;44.34;99337.44;5010736;28;20658;-68
2023/04/24 02:37:16;;;;;;;10.07;7.20;;;;;;;14.78;44.09;99338.34;5009970;28;20208;-66
2023/04/24 02:39:44;;;;;;;9.10;7.37;;;;;;;14.69;44.76;99327.44;5009702;28;20227;-68
2023/04/24 02:42:12;;;;;;;9.77;7.03;;;;;;;14.67;44.29;99338.75;5008043;28;20269;-68
2023/04/24 02:44:40;;;;;;;9.57;7.23;;;;;;;14.65;44.76;99337.97;5008517;28;20207;-68
2023/04/24 02:47:08;;;;;;;9.47;7.17;;;;;;;14.62;44.77;99335.50;5011627;28;20207;-67
2023/04/24 02:49:37;;;;;;;10.80;7.43;;;;;;;14.58;44.77;99339.97;5010486;28;20872;-70
2023/04/24 02:52:06;;;;;;;11.33;6.93;;;;;;;14.56;44.60;99335.75;5008450;28;20214;-70
2023/04/24 02:54:34;;;;;;;10.03;7.43;;;;;;;14.55;44.79;99334.06;5010134;28;20199;-68
2023/04/24 02:57:02;;;;;;;11.43;7.47;;;;;;;14.49;44.90;99328.19;5005656;28;20207;-67
2023/04/24 02:59:31;;;;;;;10.47;7.17;;;;;;;14.45;44.55;99336.13;5008323;28;20257;-69
2023/04/24 03:01:59;;;;;;;12.27;7.17;;;;;;;14.43;44.43;99338.78;5013279;28;20234;-68
2023/04/24 03:04:27;;;;;;;10.47;7.30;;;;;;;14.36;45.02;99328.69;5015157;28;20277;-73
2023/04/24 03:06:57;;;;;;;7.90;6.93;;;;;;;14.39;45.71;99333.75;5013315;28;20548;-68
2023/04/24 03:09:25;;;;;;;8.50;6.90;;;;;;;14.34;46.07;99325.34;5010863;28;20752;-69
2023/04/24 03:11:53;;;;;;;11.80;6.73;;;;;;;14.34;45.56;99325.34;5014291;28;20717;-67
2023/04/24 03:14:21;;;;;;;10.53;7.60;;;;;;;14.32;45.97;99327.97;5012096;28;20235;-69
2023/04/24 03:16:49;;;;;;;9.70;7.33;;;;;;;14.28;45.30;99318.63;5011280;28;20211;-68
2023/04/24 03:19:18;;;;;;;13.93;7.30;;;;;;;14.28;45.64;99331.59;5012317;28;20596;-67
2023/04/24 03:21:46;;;;;;;10.50;7.73;;;;;;;14.26;46.48;99329.06;5012161;28;20215;-66
2023/04/24 03:24:15;;;;;;;9.63;7.67;;;;;;;14.24;46.21;99330.00;5014438;28;20242;-66
2023/04/24 03:26:43;;;;;;;7.97;7.00;;;;;;;14.24;45.96;99337.78;5012103;28;20230;-67
2023/04/24 03:29:11;;;;;;;11.20;7.43;;;;;;;14.22;45.98;99337.03;5010733;28;20286;-68
2023/04/24 03:31:39;;;;;;;9.30;7.30;;;;;;;14.21;46.44;99340.50;5012400;28;20422;-67
2023/04/24 03:34:07;;;;;;;9.20;7.33;;;;;;;14.19;46.93;99337.13;5012724;28;20214;-68
2023/04/24 03:36:35;;;;;;;9.10;7.77;;;;;;;14.17;46.50;99338.91;5013040;28;20670;-69
2023/04/24 03:39:03;;;;;;;12.70;7.30;;;;;;;14.16;46.47;99332.06;5012263;28;20223;-66
2023/04/24 03:41:33;;;;;;;11.43;7.03;;;;;;;14.18;46.33;99341.47;5006080;28;20207;-67
2023/04/24 03:44:01;;;;;;;9.63;7.40;;;;;;;14.21;46.52;99332.72;5013541;28;20211;-67
2023/04/24 03:46:28;;;;;;;11.47;7.43;;;;;;;14.25;46.53;99337.75;5008737;28;20261;-69
2023/04/24 03:48:56;;;;;;;8.73;6.90;;;;;;;14.26;46.18;99330.81;5013671;28;20673;-68
2023/04/24 03:51:25;;;;;;;10.57;7.43;;;;;;;14.31;45.35;99341.84;5010955;28;20207;-68
2023/04/24 03:53:53;;;;;;;10.77;6.90;;;;;;;14.37;45.19;99339.03;5014200;28;20266;-69
2023/04/24 03:56:20;;;;;;;10.33;7.27;;;;;;;14.41;44.73;99331.97;5007658;28;20286;-69
2023/04/24 03:58:50;;;;;;;9.23;7.07;;;;;;;14.40;44.99;99332.88;5011007;28;20282;-68
2023/04/24 04:01:18;;;;;;;11.30;7.37;;;;;;;14.38;45.18;99335.50;5007708;28;20206;-70
2023/04/24 04:03:46;;;;;;;10.60;6.93;;;;;;;14.37;45.18;99331.25;5014190;28;20576;-67
2023/04/24 04:06:15;;;;;;;13.03;6.90;;;;;;;14.39;44.96;99338.94;5014038;28;20698;-69
2023/04/24 04:08:43;;;;;;;13.03;7.50;;;;;;;14.39;44.80;99334.59;5003813;28;20238;-66
2023/04/24 04:11:11;;;;;;;7.60;6.80;;;;;;;14.42;44.77;99329.31;5012103;28;20258;-67
2023/04/24 04:13:39;;;;;;;8.90;7.10;;;;;;;14.51;45.10;99328.16;5013864;28;20245;-71
2023/04/24 04:16:09;;;;;;;9.13;7.03;;;;;;;14.62;44.46;99336.34;5013483;28;20269;-67
2023/04/24 04:18:37;;;;;;;8.97;7.10;;;;;;;14.69;44.22;99337.81;5011026;28;20293;-67
2023/04/24 04:21:05;;;;;;;10.63;7.97;;;;;;;14.76;43.73;99333.19;5012650;28;20261;-67
2023/04/24 04:23:33;;;;;;;8.40;7.20;;;;;;;14.76;44.34;99340.13;5011966;28;20752;-69
2023/04/24 04:26:01;;;;;;;12.07;7.47;;;;;;;14.64;44.43;99344.06;5011186;28;20922;-70
2023/04/24 04:28:30;;;;;;;10.67;7.73;;;;;;;14.56;44.42;99331.41;5012753;28;20257;-67
2023/04/24 04:30:58;;;;;;;10.47;7.70;;;;;;;14.61;44.76;99336.41;5005148;28;20769;-67
2023/04/24 04:33:28;;;;;;;10.10;7.13;;;;;;;14.67;44.44;99330.97;5005431;28;20571;-68
2023/04/24 04:35:57;;;;;;;11.37;7.70;;;;;;;14.74;44.65;99340.22;5007046;28;20611;-68
2023/04/24 04:38:26;;;;;;;10.00;7.07;;;;;;;14.83;44.38;99345.00;5007236;28;20200;-67
2023/04/24 04:40:56;;;;;;;12.07;7.57;;;;;;;14.93;44.34;99341.16;5009826;28;20215;-67
2023/04/24 04:43:24;;;;;;;8.30;7.17;;;;;;;15.06;43.73;99340.63;5009716;28;20211;-69
2023/04/24 04:45:54;;;;;;;8.87;7.40;;;;;;;15.16;43.40;99334.16;5008787;28;20253;-67
2023/04/24 04:48:22;;;;;;;10.90;7.30;;;;;;;15.30;43.26;99333.59;5011788;28;20223;-68
2023/04/24 04:50:51;;;;;;;12.23;7.03;;;;;;;15.43;43.19;99325.22;5011533;28;20207;-70
2023/04/24 04:53:19;;;;;;;9.60;7.37;;;;;;;15.60;42.76;99324.47;5012958;28;20361;-68
2023/04/24 04:55:48;;;;;;;11.57;7.33;;;;;;;15.69;42.38;99321.53;5012797;28;20619;-69
2023/04/24 04:58:16;;;;;;;14.13;7.43;;;;;;;15.78;42.48;99324.63;5009478;28;20207;-72
2023/04/24 05:00:44;;;;;;;10.43;7.07;;;;;;;15.90;41.93;99322.31;5012384;28;20266;-69
2023/04/24 05:03:12;;;;;;;9.93;6.90;;;;;;;16.01;42.03;99316.63;5008913;28;20226;-73
2023/04/24 05:05:45;;;;;;;9.90;6.97;;;;;;;16.20;41.56;99321.84;5004628;28;20218;-72
2023/04/24 05:08:15;;;;;;;8.73;7.07;;;;;;;16.35;41.32;99310.72;5001374;28;20292;-72
2023/04/24 05:10:54;;;;;;;14.05;7.72;;;;;;;16.57;40.46;99312.28;5007120;28;20443;-71
2023/04/24 05:13:22;;;;;;;12.32;8.02;;;;;;;16.79;40.39;99320.81;5005834;28;20250;-71
2023/04/24 05:16:06;;;;;;;13.93;7.30;;;;;;;17.06;40.06;99315.16;5002655;28;20214;-71
2023/04/24 05:18:34;;;;;;;10.85;6.78;;;;;;;17.29;39.52;99312.22;5008649;28;20218;-71
2023/04/24 05:21:02;;;;;;;11.02;7.10;;;;;;;17.56;38.80;99316.91;5008283;28;20827;-71
2023/04/24 05:23:31;;;;;;;12.02;8.15;;;;;;;17.83;38.58;99312.91;5009758;28;20718;-71
2023/04/24 05:26:00;;;;;;;9.60;7.50;;;;;;;18.05;37.79;99312.63;5005593;28;20425;-69
2023/04/24 05:28:28;;;;;;;12.02;7.32;;;;;;;18.23;37.50;99317.75;4999824;28;20209;-68
2023/04/24 05:30:56;;;;;;;10.63;6.28;;;;;;;18.39;36.84;99312.53;5002290;28;20230;-72
2023/04/24 05:33:24;;;;;;;10.80;7.38;;;;;;;18.56;36.43;99315.06;5006044;28;20969;-72
2023/04/24 05:35:52;;;;;;;9.32;7.05;;;;;;;18.82;36.01;99308.38;5008346;28;20204;-71
2023/04/24 05:38:20;;;;;;;12.23;7.82;;;;;;;19.00;35.79;99319.50;5008536;28;20265;-71
2023/04/24 05:40:50;;;;;;;10.07;7.15;;;;;;;19.20;35.89;99310.53;5007064;28;20704;-72
2023/04/24 05:43:18;;;;;;;9.60;7.90;;;;;;;19.34;35.68;99299.28;5004030;28;20253;-74
2023/04/24 05:45:46;;;;;;;12.52;6.82;;;;;;;19.63;35.78;99305.41;5010897;28;20641;-72
2023/04/24 05:48:14;;;;;;;16.08;7.55;;;;;;;19.78;35.46;99309.69;5006465;28;20471;-72
2023/04/24 05:50:42;;;;;;;12.32;6.97;;;;;;;19.98;34.88;99301.44;5008485;28;20199;-72
2023/04/24 05:53:11;;;;;;;10.82;7.38;;;;;;;20.16;34.10;99304.69;5003493;28;20226;-62
2023/04/24 05:55:39;;;;;;;9.68;6.50;;;;;;;20.34;33.47;99294.00;5006375;28;20350;-69
2023/04/24 05:58:08;;;;;;;12.38;7.68;;;;;;;20.52;32.87;99292.84;5006689;28;20202;-68
2023/04/24 06:00:37;;;;;;;10.88;7.43;;;;;;;20.77;32.51;99296.47;5010401;28;20215;-67
2023/04/24 06:03:05;;;;;;;12.13;7.00;;;;;;;21.02;31.82;99298.31;5008753;28;20207;-69
2023/04/24 06:05:34;;;;;;;10.63;6.93;;;;;;;21.26;31.92;99291.44;5011223;28;20203;-70
2023/04/24 06:08:03;;;;;;;10.98;7.10;;;;;;;21.41;31.60;99286.97;5006252;28;20659;-68
2023/04/24 06:10:31;;;;;;;10.50;7.18;;;;;;;21.44;31.68;99290.22;5009333;28;20210;-69
2023/04/24 06:13:00;;;;;;;11.23;6.88;;;;;;;21.27;31.60;99289.66;5007606;28;20238;-68
2023/04/24 06:15:31;;;;;;;10.02;7.22;;;;;;;21.17;31.88;99287.69;5011141;28;20235;-69
2023/04/24 06:17:59;;;;;;;13.55;7.28;;;;;;;21.23;32.17;99289.84;5009699;28;20199;-68
2023/04/24 06:20:27;;;;;;;12.70;6.57;;;;;;;21.21;31.62;99286.53;5006935;28;20223;-69
2023/04/24 06:22:55;;;;;;;12.43;7.10;;;;;;;21.08;32.31;99280.41;5004150;28;20202;-69
2023/04/24 06:25:25;;;;;;;9.30;6.20;;;;;;;21.15;32.19;99284.31;5001437;28;20231;-68
2023/04/24 06:27:53;;;;;;;10.65;6.80;;;;;;;21.41;31.99;99285.19;5006372;28;20212;-69
2023/04/24 06:30:22;;;;;;;11.70;7.10;;;;;;;21.56;31.57;99282.47;5006645;28;20441;-70
2023/04/24 06:32:52;;;;;;;10.55;7.40;;;;;;;21.58;31.71;99278.78;5009854;28;20654;-71
2023/04/24 06:35:20;;;;;;;10.20;7.40;;;;;;;21.67;31.54;99275.50;5007719;28;20199;-70
2023/04/24 06:37:48;;;;;;;14.90;7.50;;;;;;;21.77;30.84;99283.59;5007793;28;20221;-69
2023/04/24 06:40:18;;;;;;;13.70;6.97;;;;;;;21.90;30.70;99276.53;5007910;28;20200;-68
2023/04/24 06:42:46;;;;;;;12.30;7.00;;;;;;;22.16;30.71;99274.69;4999608;28;20289;-67
2023/04/24 06:45:14;;;;;;;8.45;7.03;;;;;;;22.39;30.57;99270.44;5006892;28;20216;-68
2023/04/24 06:47:42;;;;;;;11.00;7.15;;;;;;;22.64;30.22;99273.88;5010148;28;20269;-67
2023/04/24 06:50:12;;;;;;;11.88;7.38;;;;;;;22.85;29.60;99274.06;5006394;28;20249;-68
2023/04/24 06:52:40;;;;;;;10.13;7.55;;;;;;;23.08;29.28;99269.72;5008948;28;20709;-70
2023/04/24 06:55:10;;;;;;;10.75;6.55;;;;;;;23.23;28.97;99273.00;5005177;28;20240;-69
2023/04/24 06:57:38;;;;;;;8.18;6.38;;;;;;;23.41;28.53;99276.84;5009019;28;20218;-67
2023/04/24 07:00:09;;;;;;;11.18;7.05;;;;;;;23.62;28.33;99271.72;5008214;28;20638;-65
2023/04/24 07:02:37;;;;;;;12.85;6.53;;;;;;;23.78;27.76;99266.94;5005755;28;20215;-65
2023/04/24 07:05:06;;;;;;;11.95;6.93;;;;;;;23.95;27.71;99273.53;5006623;28;20203;-66
2023/04/24 07:07:37;;;;;;;7.32;6.18;;;;;;;24.30;27.28;99269.84;5003586;28;20607;-64
2023/04/24 07:10:06;;;;;;;10.15;6.00;;;;;;;24.81;26.67;99261.31;5007355;28;20666;-61
2023/04/24 07:12:35;;;;;;;10.30;6.18;;;;;;;25.41;26.07;99262.41;5007808;28;20620;-65
2023/04/24 07:15:03;;;;;;;10.65;6.72;;;;;;;25.85;25.41;99260.41;5007450;28;20207;-61
2023/04/24 07:17:31;;;;;;;11.50;6.70;;;;;;;26.23;24.60;99261.44;5010146;28;20678;-61
2023/04/24 07:19:59;;;;;;;10.38;6.43;;;;;;;26.50;24.40;99261.63;5010838;28;20203;-61
2023/04/24 07:22:27;;;;;;;13.18;6.18;;;;;;;26.32;24.57;99260.63;5007501;28;20212;-64
2023/04/24 07:24:56;;;;;;;10.52;6.85;;;;;;;25.49;25.54;99262.59;5003151;28;21809;-64
2023/04/24 07:27:26;;;;;;;12.50;6.85;;;;;;;24.62;26.90;99261.16;5009887;28;20211;-63
2023/04/24 07:29:54;;;;;;;10.00;6.97;;;;;;;23.86;27.86;99263.75;5008777;28;20211;-63
2023/04/24 07:32:22;;;;;;;11.27;6.10;;;;;;;23.28;28.73;99270.88;5009702;28;20610;-64
2023/04/24 07:34:50;;;;;;;12.32;6.78;;;;;;;22.83;29.71;99268.09;5007561;28;20663;-67
2023/04/24 07:37:18;;;;;;;9.52;7.07;;;;;;;22.48;30.54;99268.91;5008719;28;20250;-65
2023/04/24 07:39:46;;;;;;;8.15;6.55;;;;;;;22.33;30.83;99260.38;5010013;28;20679;-62
2023/04/24 07:42:15;;;;;;;11.10;6.88;;;;;;;22.53;30.88;99266.78;5003360;28;20220;-63
2023/04/24 07:44:43;;;;;;;13.73;6.47;;;;;;;23.26;29.53;99249.09;5008716;28;20222;-64
2023/04/24 07:47:11;;;;;;;9.18;6.45;;;;;;;23.21;29.59;99261.78;5008843;28;20242;-61
2023/04/24 07:49:39;;;;;;;8.80;7.18;;;;;;;22.90;29.96;99261.41;5010990;28;20241;-65
2023/04/24 07:52:07;;;;;;;11.48;6.88;;;;;;;22.56;30.88;99260.47;5013364;28;20620;-61
2023/04/24 07:54:35;;;;;;;12.18;7.07;;;;;;;22.22;31.58;99264.72;5011301;28;20219;-62
2023/04/24 07:57:03;;;;;;;12.90;6.95;;;;;;;21.91;32.23;99264.25;5010968;28;20342;-61
2023/04/24 07:59:33;;;;;;;10.70;7.82;;;;;;;21.70;32.85;99264.81;5007034;28;20747;-61
2023/04/24 08:02:01;;;;;;;10.85;7.10;;;;;;;21.52;33.61;99273.13;5005985;28;20713;-65
2023/04/24 08:04:29;;;;;;;12.80;7.45;;;;;;;21.38;34.31;99271.44;5011196;28;20215;-62
2023/04/24 08:06:57;;;;;;;13.27;7.13;;;;;;;21.17;34.07;99266.72;5011808;28;20199;-62
2023/04/24 08:09:26;;;;;;;12.88;6.75;;;;;;;21.00;35.09;99272.25;5006274;28;20233;-61
2023/04/24 08:11:54;;;;;;;12.93;7.43;;;;;;;20.88;35.44;99267.84;5013506;28;20254;-62
2023/04/24 08:14:22;;;;;;;9.23;6.72;;;;;;;20.80;35.10;99272.72;5012333;28;20207;-60
2023/04/24 08:16:51;;;;;;;13.90;7.57;;;;;;;20.71;35.58;99272.38;5010390;28;20199;-64
2023/04/24 08:19:19;;;;;;;13.27;7.57;;;;;;;20.60;35.89;99274.03;5011350;28;20200;-61
2023/04/24 08:21:47;;;;;;;11.73;7.65;;;;;;;20.45;35.89;99275.84;5012078;28;20227;-61
2023/04/24 08:24:15;;;;;;;10.85;7.45;;;;;;;20.35;36.45;99275.56;5011437;28;20578;-60
2023/04/24 08:26:43;;;;;;;16.33;7.20;;;;;;;20.28;36.71;99275.13;5012152;28;20207;-61
2023/04/24 08:29:11;;;;;;;9.82;7.32;;;;;;;20.21;36.76;99279.09;5013459;28;20605;-62
2023/04/24 08:31:39;;;;;;;10.20;6.95;;;;;;;20.21;36.99;99273.88;5012785;28;20195;-62
2023/04/24 08:34:10;;;;;;;9.93;7.35;;;;;;;20.25;37.15;99285.81;5011614;28;20215;-63
2023/04/24 08:36:40;;;;;;;10.15;7.53;;;;;;;20.24;37.45;99278.03;5013317;28;20562;-62
2023/04/24 08:39:14;;;;;;;9.27;7.55;;;;;;;20.24;37.61;99283.28;5012789;28;20230;-62
2023/04/24 08:41:45;;;;;;;11.57;6.93;;;;;;;20.36;37.56;99277.28;5009414;28;20702;-66
2023/04/24 08:44:15;;;;;;;11.88;7.35;;;;;;;20.46;37.26;99272.28;5005383;28;20211;-64
2023/04/24 08:46:45;;;;;;;9.35;7.32;;;;;;;20.58;37.51;99276.72;5007907;28;20215;-63
2023/04/24 08:49:16;;;;;;;10.18;7.22;;;;;;;20.71;37.14;99269.75;5012544;28;20242;-61
2023/04/24 08:51:44;;;;;;;9.13;7.60;;;;;;;20.90;37.37;99272.00;5010138;28;20670;-65
2023/04/24 08:54:13;;;;;;;9.85;7.10;;;;;;;21.17;36.90;99269.34;5011287;28;20285;-65
2023/04/24 08:56:45;;;;;;;10.52;7.38;;;;;;;21.48;36.67;99267.25;5011342;28;20203;-62
2023/04/24 08:59:13;;;;;;;10.77;7.05;;;;;;;21.98;35.88;99268.09;5009727;28;20241;-63
2023/04/24 09:01:41;;;;;;;15.43;7.90;;;;;;;22.27;35.10;99263.44;5000993;28;20615;-62
2023/04/24 09:04:11;;;;;;;11.95;7.45;;;;;;;22.46;34.69;99262.94;5007188;28;20203;-62
2023/04/24 09:06:42;;;;;;;11.30;6.95;;;;;;;22.85;34.15;99261.75;5002156;28;20208;-62
2023/04/24 09:09:11;;;;;;;11.55;6.22;;;;;;;23.22;33.11;99263.44;5002759;28;20211;-61
2023/04/24 09:11:39;;;;;;;10.15;6.95;;;;;;;23.96;33.45;99264.66;5002691;28;20663;-61
2023/04/24 09:14:10;;;;;;;10.38;6.40;;;;;;;25.44;31.38;99258.66;5010003;28;20593;-62
2023/04/24 09:16:38;;;;;;;12.43;7.65;;;;;;;28.51;26.03;99250.66;5009979;28;20200;-62
2023/04/24 09:19:06;;;;;;;8.10;6.50;;;;;;;30.79;22.27;99248.25;5006004;28;20203;-61
2023/04/24 09:21:34;;;;;;;13.50;6.80;;;;;;;31.52;21.44;99235.84;5011793;28;20215;-62
2023/04/24 09:24:06;;;;;;;11.50;6.43;;;;;;;31.88;20.85;99246.03;5002910;28;20636;-61
2023/04/24 09:26:36;;;;;;;10.15;7.00;;;;;;;30.83;21.08;99245.28;5006756;28;20209;-62
2023/04/24 09:29:05;;;;;;;8.45;5.55;;;;;;;29.31;21.90;99235.53;5011016;28;20584;-61
2023/04/24 09:31:33;;;;;;;7.68;5.55;;;;;;;27.71;23.44;99238.97;5007997;28;20241;-63
2023/04/24 09:34:05;;;;;;;7.75;5.60;;;;;;;26.23;24.91;99241.16;5005143;28;20257;-66
2023/04/24 09:36:38;;;;;;;10.68;5.90;;;;;;;25.16;26.98;99244.38;5010241;28;20207;-63
2023/04/24 09:39:10;;;;;;;8.38;5.82;;;;;;;24.68;27.95;99229.06;5010428;28;20211;-65
2023/04/24 09:41:45;;;;;;;8.75;5.38;;;;;;;26.64;26.47;99228.69;5005546;28;20203;-62
2023/04/24 09:44:15;;;;;;;7.90;5.30;;;;;;;29.80;22.49;99224.31;5006622;28;20685;-60
2023/04/24 09:46:49;;;;;;;10.32;5.00;;;;;;;32.61;19.00;99218.88;5001579;28;20215;-61
2023/04/24 09:49:23;;;;;;;8.48;5.05;;;;;;;35.01;16.06;99212.78;5006859;28;20213;-60
2023/04/24 09:51:50;;;;;;;5.03;4.28;;;;;;;37.00;14.09;99213.38;5005297;28;20582;-60
2023/04/24 09:54:21;;;;;;;4.75;3.65;;;;;;;38.29;12.41;99208.09;5008754;28;20210;-61
2023/04/24 09:56:51;;;;;;;11.27;4.07;;;;;;;38.49;12.40;99208.00;5008733;28;20262;-60
2023/04/24 09:59:20;;;;;;;4.10;3.65;;;;;;;38.91;12.59;99201.00;5009033;28;20750;-59
2023/04/24 10:01:49;;;;;;;4.15;3.75;;;;;;;39.99;11.70;99194.13;5004025;28;20227;-64
2023/04/24 10:04:19;;;;;;;6.55;3.80;;;;;;;40.98;11.20;99197.91;5007441;28;20235;-61
2023/04/24 10:06:49;;;;;;;5.05;3.88;;;;;;;41.70;10.71;99189.44;5006972;28;20199;-60
2023/04/24 10:09:18;;;;;;;4.32;3.92;;;;;;;41.90;10.46;99182.78;5001881;28;20210;-60
2023/04/24 10:11:49;;;;;;;8.93;3.60;;;;;;;42.02;10.06;99186.28;5002657;28;20743;-64
2023/04/24 10:14:18;;;;;;;6.07;3.83;;;;;;;41.83;9.80;99184.78;5006356;28;20655;-62
2023/04/24 10:16:47;;;;;;;6.45;3.72;;;;;;;41.45;11.01;99180.84;5010675;28;20210;-61
2023/04/24 10:19:16;;;;;;;4.53;3.90;;;;;;;41.48;10.76;99178.47;5008119;28;20225;-59
2023/04/24 10:21:46;;;;;;;4.95;3.58;;;;;;;41.45;10.66;99173.53;5007007;28;20211;-60
2023/04/24 10:24:15;;;;;;;6.45;4.25;;;;;;;39.16;11.28;99163.22;5007984;28;20270;-62
2023/04/24 10:26:44;;;;;;;7.10;4.45;;;;;;;37.37;12.75;99177.94;5004242;28;20322;-62
2023/04/24 10:29:15;;;;;;;5.63;4.88;;;;;;;35.92;14.23;99167.03;5008206;28;20663;-61
2023/04/24 10:31:45;;;;;;;7.72;4.93;;;;;;;35.31;14.92;99170.53;5005360;28;20777;-62
2023/04/24 10:34:16;;;;;;;6.70;5.10;;;;;;;35.09;15.74;99171.63;5006602;28;20686;-60
2023/04/24 10:36:49;;;;;;;7.10;4.68;;;;;;;35.02;15.91;99166.25;5010437;28;20254;-61
2023/04/24 10:39:18;;;;;;;7.80;5.10;;;;;;;34.57;16.22;99157.66;5006488;28;20237;-63
2023/04/24 10:41:56;;;;;;;7.25;5.30;;;;;;;33.58;16.87;99157.50;5008925;28;20207;-62
2023/04/24 10:44:26;;;;;;;5.63;4.97;;;;;;;32.68;17.97;99150.47;5008034;28;20207;-60
2023/04/24 10:46:56;;;;;;;5.75;4.78;;;;;;;32.10;18.25;99154.59;5005111;28;20265;-63
2023/04/24 10:49:29;;;;;;;6.07;5.03;;;;;;;31.83;19.54;99160.44;5007102;28;20282;-61
2023/04/24 10:52:01;;;;;;;7.35;5.35;;;;;;;31.88;18.86;99163.41;5004245;28;20202;-64
2023/04/24 10:54:34;;;;;;;5.55;4.90;;;;;;;31.56;18.45;99148.41;5008852;28;20653;-66
2023/04/24 10:57:33;;;;;;;5.35;4.85;;;;;;;29.95;19.46;99155.47;5008407;28;20204;-62
2023/04/24 11:00:32;;;;;;;9.07;5.22;;;;;;;29.15;20.75;99152.34;4974066;28;20211;-63
2023/04/24 11:03:00;;;;;;;7.47;5.47;;;;;;;29.05;21.74;99155.97;4988894;28;20794;-62
2023/04/24 11:06:07;;;;;;;9.43;5.35;;;;;;;29.60;21.45;99147.59;5001429;28;20683;-62
2023/04/24 11:08:40;;;;;;;6.43;5.32;;;;;;;29.90;21.16;99149.78;4985221;28;20298;-63
2023/04/24 11:11:12;;;;;;;8.52;5.00;;;;;;;30.17;19.99;99146.88;5000787;28;20566;-60
2023/04/24 11:14:03;;;;;;;6.95;4.85;;;;;;;30.10;19.73;99148.50;5005293;28;20585;-67
2023/04/24 11:16:35;;;;;;;7.45;4.63;;;;;;;29.28;19.29;99139.47;5005545;28;20290;-68
2023/04/24 11:19:06;;;;;;;6.10;4.40;;;;;;;28.31;20.30;99143.94;5007691;28;20204;-68
2023/04/24 11:21:42;;;;;;;7.60;4.60;;;;;;;27.86;20.48;99147.50;5014911;28;20223;-68
2023/04/24 11:24:26;;;;;;;9.40;5.40;;;;;;;27.73;20.87;99147.03;5014684;28;20234;-69
2023/04/24 11:26:56;;;;;;;6.80;4.68;;;;;;;27.87;21.52;99137.75;5008012;28;20207;-72
2023/04/24 11:29:39;;;;;;;11.55;4.53;;;;;;;27.92;20.66;99151.38;5012372;28;20203;-71
2023/04/24 11:32:27;;;;;;;5.90;4.68;;;;;;;28.03;20.69;99142.41;5012971;28;20226;-69
2023/04/24 11:34:56;;;;;;;7.25;4.40;;;;;;;27.96;20.71;99136.03;5007087;28;20222;-70
2023/04/24 11:37:27;;;;;;;4.95;4.45;;;;;;;27.88;21.37;99142.91;5014288;28;20203;-72
2023/04/24 11:39:55;;;;;;;11.57;4.70;;;;;;;27.80;21.46;99137.53;5009676;28;20284;-68